Time;durP1;ratioP1;P1;durP2;ratioP2;P2;SDS_P1;SDS_P2;PMS_P1;PMS_P2;Temp;Humidity;BMP_temperature;BMP_pressure;BME280_temperature;BME280_humidity;BME280_pressure;Samples;Min_cycle;Max_cycle;Signal;HPM_P1;HPM_P2
2021/08/10 00:00:54;;;;;;;18.10;13.95;;;;;;;;;;5093309;28;20100;-62
2021/08/10 00:03:20;;;;;;;19.23;14.50;;;;;;;;;;5093257;28;20073;-60
2021/08/10 00:05:52;;;;;;;21.23;13.43;;;;;;;;;;5092626;28;20023;-63
2021/08/10 00:08:19;;;;;;;20.55;13.93;;;;;;;;;;5094471;28;20035;-62
2021/08/10 00:10:45;;;;;;;18.77;14.13;;;;;;;;;;5094541;28;20507;-61
2021/08/10 00:13:12;;;;;;;18.77;14.20;;;;;;;;;;5094418;28;20028;-62
2021/08/10 00:15:38;;;;;;;17.75;13.90;;;;;;;;;;5093521;28;20097;-63
2021/08/10 00:18:05;;;;;;;20.40;14.57;;;;;;;;;;5094195;28;20031;-63
2021/08/10 00:20:31;;;;;;;21.58;14.00;;;;;;;;;;5093056;28;20032;-63
2021/08/10 00:22:57;;;;;;;18.25;14.00;;;;;;;;;;5094224;28;20066;-63
2021/08/10 00:25:23;;;;;;;19.63;13.90;;;;;;;;;;5092161;28;20028;-62
2021/08/10 00:27:49;;;;;;;18.48;13.98;;;;;;;;;;5093993;28;20024;-64
2021/08/10 00:30:15;;;;;;;19.25;14.45;;;;;;;;;;5092608;28;20035;-63
2021/08/10 00:32:41;;;;;;;19.63;14.15;;;;;;;;;;5093991;28;20027;-64
2021/08/10 00:35:07;;;;;;;18.15;13.90;;;;;;;;;;5093511;28;20480;-59
2021/08/10 00:37:33;;;;;;;19.15;14.25;;;;;;;;;;5094029;28;20031;-63
2021/08/10 00:39:59;;;;;;;19.50;14.88;;;;;;;;;;5093858;28;20020;-63
2021/08/10 00:42:25;;;;;;;20.05;15.52;;;;;;;;;;5093582;28;20393;-63
2021/08/10 00:44:51;;;;;;;18.48;14.70;;;;;;;;;;5093789;28;20098;-64
2021/08/10 00:47:17;;;;;;;21.38;15.90;;;;;;;;;;5093062;28;20030;-63
2021/08/10 00:49:43;;;;;;;18.73;14.88;;;;;;;;;;5092791;28;20586;-63
2021/08/10 00:52:09;;;;;;;18.90;14.60;;;;;;;;;;5092355;28;20074;-62
2021/08/10 00:54:35;;;;;;;19.10;14.52;;;;;;;;;;5092244;28;20031;-63
2021/08/10 00:57:01;;;;;;;18.60;14.98;;;;;;;;;;5091689;28;20042;-64
2021/08/10 00:59:27;;;;;;;19.63;14.88;;;;;;;;;;5092121;28;20016;-65
2021/08/10 01:01:53;;;;;;;20.23;14.57;;;;;;;;;;5092209;28;20020;-62
2021/08/10 01:04:19;;;;;;;18.55;14.95;;;;;;;;;;5092280;28;20471;-64
2021/08/10 01:06:57;;;;;;;19.50;15.80;;;;;;;;;;5091285;28;20032;-62
2021/08/10 01:09:32;;;;;;;22.45;15.18;;;;;;;;;;5092034;28;20024;-64
2021/08/10 01:11:58;;;;;;;19.85;15.05;;;;;;;;;;5092007;28;20050;-63
2021/08/10 01:14:30;;;;;;;19.15;14.48;;;;;;;;;;5091842;28;20388;-64
2021/08/10 01:17:02;;;;;;;17.60;14.35;;;;;;;;;;5092436;28;20365;-64
2021/08/10 01:19:46;;;;;;;18.92;14.55;;;;;;;;;;5093212;28;20024;-63
2021/08/10 01:22:14;;;;;;;21.90;14.90;;;;;;;;;;5091789;28;20016;-63
2021/08/10 01:24:46;;;;;;;18.52;15.10;;;;;;;;;;5092905;28;20062;-63
2021/08/10 01:27:15;;;;;;;18.55;14.73;;;;;;;;;;5092455;28;20024;-64
2021/08/10 01:30:00;;;;;;;19.40;15.02;;;;;;;;;;5093237;28;20048;-62
2021/08/10 01:32:26;;;;;;;20.73;15.30;;;;;;;;;;5092757;28;20384;-62
2021/08/10 01:34:52;;;;;;;19.55;15.70;;;;;;;;;;5092697;28;20028;-62
2021/08/10 01:37:21;;;;;;;22.15;15.25;;;;;;;;;;5091990;28;20020;-63
2021/08/10 01:39:49;;;;;;;19.25;15.35;;;;;;;;;;5074695;28;20024;-64
2021/08/10 01:42:17;;;;;;;18.58;14.80;;;;;;;;;;5074624;28;20404;-63
2021/08/10 01:44:44;;;;;;;20.17;15.40;;;;;;;;;;5092433;28;20403;-63
2021/08/10 01:47:10;;;;;;;19.67;14.82;;;;;;;;;;5091685;28;20115;-63
2021/08/10 01:49:38;;;;;;;20.10;15.90;;;;;;;;;;5092579;28;20028;-63
2021/08/10 01:52:05;;;;;;;19.27;14.95;;;;;;;;;;5092607;28;20103;-63
2021/08/10 01:54:31;;;;;;;20.38;15.98;;;;;;;;;;5092334;28;20476;-63
2021/08/10 01:56:57;;;;;;;21.17;15.13;;;;;;;;;;5091559;28;20065;-63
2021/08/10 01:59:24;;;;;;;19.17;15.70;;;;;;;;;;5091075;28;20496;-63
2021/08/10 02:01:50;;;;;;;18.88;15.50;;;;;;;;;;5092278;28;20028;-62
2021/08/10 02:04:18;;;;;;;19.38;15.93;;;;;;;;;;5090922;28;20498;-63
2021/08/10 02:06:44;;;;;;;22.10;15.98;;;;;;;;;;5090108;28;20031;-62
2021/08/10 02:09:10;;;;;;;21.42;16.42;;;;;;;;;;5090712;28;20431;-64
2021/08/10 02:11:38;;;;;;;20.67;16.40;;;;;;;;;;5092222;28;20051;-61
2021/08/10 02:14:04;;;;;;;20.02;16.27;;;;;;;;;;5090627;28;20506;-64
2021/08/10 02:16:31;;;;;;;20.40;16.35;;;;;;;;;;5091257;28;20063;-62
2021/08/10 02:18:57;;;;;;;20.40;16.50;;;;;;;;;;5090784;28;20024;-62
2021/08/10 02:21:33;;;;;;;19.42;15.57;;;;;;;;;;5092152;28;20024;-61
2021/08/10 02:24:02;;;;;;;21.85;16.10;;;;;;;;;;5091896;28;20082;-62
2021/08/10 02:26:29;;;;;;;19.52;16.10;;;;;;;;;;5091163;28;20136;-62
2021/08/10 02:28:55;;;;;;;21.00;15.85;;;;;;;;;;5091858;28;20509;-64
2021/08/10 02:31:22;;;;;;;20.40;15.23;;;;;;;;;;5090611;28;20399;-63
2021/08/10 02:33:48;;;;;;;21.20;16.50;;;;;;;;;;5090583;28;20047;-64
2021/08/10 02:36:15;;;;;;;18.77;16.00;;;;;;;;;;5090088;28;20024;-62
2021/08/10 02:38:42;;;;;;;22.67;16.65;;;;;;;;;;5091689;28;20024;-64
2021/08/10 02:41:08;;;;;;;21.10;16.40;;;;;;;;;;5091604;28;20380;-62
2021/08/10 02:43:34;;;;;;;19.70;16.20;;;;;;;;;;5090995;28;20020;-63
2021/08/10 02:46:00;;;;;;;21.58;16.65;;;;;;;;;;5091043;28;20115;-63
2021/08/10 02:48:31;;;;;;;20.33;16.48;;;;;;;;;;5090385;28;20181;-64
2021/08/10 02:50:57;;;;;;;22.73;17.33;;;;;;;;;;5091131;28;20021;-63
2021/08/10 02:53:23;;;;;;;20.63;16.33;;;;;;;;;;5091052;28;20317;-63
2021/08/10 02:55:55;;;;;;;21.02;16.52;;;;;;;;;;5089353;28;20020;-63
2021/08/10 02:58:24;;;;;;;21.80;16.67;;;;;;;;;;5091390;28;20480;-64
2021/08/10 03:01:07;;;;;;;19.35;15.65;;;;;;;;;;5091744;28;20020;-63
2021/08/10 03:03:33;;;;;;;20.95;16.00;;;;;;;;;;5090308;28;20018;-64
2021/08/10 03:06:01;;;;;;;20.27;16.92;;;;;;;;;;5090983;28;20039;-63
2021/08/10 03:08:35;;;;;;;23.77;16.55;;;;;;;;;;5090198;28;20110;-63
2021/08/10 03:11:02;;;;;;;21.38;15.80;;;;;;;;;;5091575;28;20138;-63
2021/08/10 03:13:30;;;;;;;20.87;16.60;;;;;;;;;;5091187;28;20051;-63
2021/08/10 03:15:57;;;;;;;24.10;16.50;;;;;;;;;;5090816;28;20259;-63
2021/08/10 03:18:27;;;;;;;20.30;16.88;;;;;;;;;;5091471;28;20491;-64
2021/08/10 03:20:57;;;;;;;22.45;17.73;;;;;;;;;;5092562;28;20479;-62
2021/08/10 03:23:24;;;;;;;21.58;17.27;;;;;;;;;;5095332;28;20078;-61
2021/08/10 03:25:51;;;;;;;23.63;16.85;;;;;;;;;;5093194;28;20102;-62
2021/08/10 03:28:18;;;;;;;20.65;16.73;;;;;;;;;;5093415;28;20480;-61
2021/08/10 03:30:44;;;;;;;21.30;16.55;;;;;;;;;;5094939;28;20016;-62
2021/08/10 03:33:10;;;;;;;22.90;17.90;;;;;;;;;;5094963;28;20028;-62
2021/08/10 03:35:37;;;;;;;26.13;17.80;;;;;;;;;;5094059;28;20032;-62
2021/08/10 03:38:03;;;;;;;22.30;17.20;;;;;;;;;;5094977;28;20479;-64
2021/08/10 03:40:30;;;;;;;19.80;15.73;;;;;;;;;;5094900;28;20016;-64
2021/08/10 03:42:56;;;;;;;21.20;15.93;;;;;;;;;;5094910;28;20099;-63
2021/08/10 03:45:24;;;;;;;19.95;15.55;;;;;;;;;;5094079;28;20167;-63
2021/08/10 03:47:51;;;;;;;22.08;15.48;;;;;;;;;;5094730;28;20024;-63
2021/08/10 03:50:19;;;;;;;23.15;16.30;;;;;;;;;;5094988;28;20433;-63
2021/08/10 03:52:45;;;;;;;20.02;15.95;;;;;;;;;;5094636;28;20025;-62
2021/08/10 03:55:11;;;;;;;19.52;14.55;;;;;;;;;;5093876;28;20039;-63
2021/08/10 03:57:38;;;;;;;20.80;14.80;;;;;;;;;;5094232;28;20430;-63
2021/08/10 04:00:06;;;;;;;20.33;16.00;;;;;;;;;;5094451;28;20043;-63
2021/08/10 04:02:33;;;;;;;25.00;15.70;;;;;;;;;;5094213;28;20035;-64
2021/08/10 04:05:00;;;;;;;19.95;15.68;;;;;;;;;;5093066;28;20024;-63
2021/08/10 04:07:27;;;;;;;20.85;15.98;;;;;;;;;;5092255;28;20032;-63
2021/08/10 04:09:54;;;;;;;20.30;14.77;;;;;;;;;;5094142;28;20036;-63
2021/08/10 04:12:20;;;;;;;20.05;14.73;;;;;;;;;;5094257;28;20274;-64
2021/08/10 04:14:47;;;;;;;21.63;15.15;;;;;;;;;;5094240;28;20111;-63
2021/08/10 04:17:13;;;;;;;22.15;15.13;;;;;;;;;;5093622;28;20488;-63
2021/08/10 04:19:48;;;;;;;21.10;14.57;;;;;;;;;;5092796;28;20024;-63
2021/08/10 04:22:15;;;;;;;21.42;15.23;;;;;;;;;;5094105;28;20053;-64
2021/08/10 04:24:41;;;;;;;19.17;14.02;;;;;;;;;;5093911;28;20103;-63
2021/08/10 04:27:07;;;;;;;20.02;14.18;;;;;;;;;;5093231;28;20054;-63
2021/08/10 04:29:33;;;;;;;18.55;13.90;;;;;;;;;;5093820;28;20101;-63
2021/08/10 04:31:59;;;;;;;20.23;14.32;;;;;;;;;;5093684;28;20450;-63
2021/08/10 04:34:25;;;;;;;18.15;14.25;;;;;;;;;;5093945;28;20030;-62
2021/08/10 04:36:51;;;;;;;20.33;14.55;;;;;;;;;;5091898;28;20438;-63
2021/08/10 04:39:17;;;;;;;19.27;14.40;;;;;;;;;;5093672;28;20103;-63
2021/08/10 04:41:43;;;;;;;22.92;14.75;;;;;;;;;;5093642;28;20031;-64
2021/08/10 04:44:10;;;;;;;23.33;16.38;;;;;;;;;;5093442;28;20069;-62
2021/08/10 04:46:36;;;;;;;20.25;15.65;;;;;;;;;;5092940;28;20032;-64
2021/08/10 04:49:05;;;;;;;22.20;15.50;;;;;;;;;;5093330;28;20055;-63
2021/08/10 04:51:31;;;;;;;;;;;;;;;;;;5093965;28;20024;-63
2021/08/10 04:53:57;;;;;;;20.35;15.52;;;;;;;;;;5091753;28;20291;-64
2021/08/10 04:56:22;;;;;;;21.52;15.30;;;;;;;;;;5092483;28;20021;-63
2021/08/10 04:58:48;;;;;;;22.20;15.88;;;;;;;;;;5092872;28;20496;-63
2021/08/10 05:01:14;;;;;;;21.42;15.82;;;;;;;;;;5093044;28;20036;-63
2021/08/10 05:03:40;;;;;;;20.30;15.43;;;;;;;;;;5093222;28;20052;-63
2021/08/10 05:06:07;;;;;;;19.20;15.55;;;;;;;;;;5091055;28;20016;-63
2021/08/10 05:08:33;;;;;;;19.55;15.73;;;;;;;;;;5092809;28;20082;-63
2021/08/10 05:11:01;;;;;;;22.67;15.73;;;;;;;;;;5093012;28;20020;-63
2021/08/10 05:13:27;;;;;;;19.80;15.88;;;;;;;;;;5093571;28;20012;-63
2021/08/10 05:15:53;;;;;;;18.27;15.48;;;;;;;;;;5092475;28;20050;-63
2021/08/10 05:18:19;;;;;;;21.75;15.93;;;;;;;;;;5090920;28;20016;-62
2021/08/10 05:20:45;;;;;;;21.23;15.98;;;;;;;;;;5107504;28;20031;-62
2021/08/10 05:23:11;;;;;;;22.25;15.63;;;;;;;;;;5098817;28;20039;-63
2021/08/10 05:25:38;;;;;;;19.92;15.52;;;;;;;;;;5090481;28;20031;-63
2021/08/10 05:28:04;;;;;;;20.67;15.15;;;;;;;;;;5092239;28;20020;-63
2021/08/10 05:30:30;;;;;;;23.15;15.13;;;;;;;;;;5092487;28;20020;-64
2021/08/10 05:32:56;;;;;;;21.70;15.68;;;;;;;;;;5092822;28;20372;-64
2021/08/10 05:35:22;;;;;;;20.92;15.43;;;;;;;;;;5091547;28;20070;-63
2021/08/10 05:37:48;;;;;;;19.75;14.45;;;;;;;;;;5092138;28;20028;-64
2021/08/10 05:40:14;;;;;;;20.17;15.05;;;;;;;;;;5092470;28;20035;-63
2021/08/10 05:42:40;;;;;;;19.25;14.90;;;;;;;;;;5090712;28;20381;-63
2021/08/10 05:45:06;;;;;;;20.80;15.77;;;;;;;;;;5090684;28;20086;-63
2021/08/10 05:47:32;;;;;;;22.33;16.02;;;;;;;;;;5092080;28;20472;-63
2021/08/10 05:49:58;;;;;;;20.70;15.90;;;;;;;;;;5092079;28;20043;-61
2021/08/10 05:52:24;;;;;;;21.08;16.08;;;;;;;;;;5091534;28;20063;-61
2021/08/10 05:54:50;;;;;;;22.98;15.68;;;;;;;;;;5091809;28;20028;-62
2021/08/10 05:57:16;;;;;;;20.00;16.17;;;;;;;;;;5107122;22;20048;-65
2021/08/10 05:59:44;;;;;;;21.63;16.42;;;;;;;;;;5069932;28;20131;-65
2021/08/10 06:02:10;;;;;;;19.48;15.77;;;;;;;;;;5071295;28;20367;-59
2021/08/10 06:04:36;;;;;;;20.80;15.05;;;;;;;;;;5069794;28;20029;-60
2021/08/10 06:07:03;;;;;;;19.23;15.00;;;;;;;;;;5069992;28;20060;-62
2021/08/10 06:09:29;;;;;;;20.05;15.10;;;;;;;;;;5050835;28;20025;-60
2021/08/10 06:11:55;;;;;;;20.70;15.38;;;;;;;;;;5050584;28;20035;-62
2021/08/10 06:14:21;;;;;;;20.27;15.70;;;;;;;;;;5050426;28;20033;-60
2021/08/10 06:16:47;;;;;;;20.15;15.10;;;;;;;;;;5049983;28;20049;-61
2021/08/10 06:19:13;;;;;;;19.88;15.57;;;;;;;;;;5050593;28;20377;-62
2021/08/10 06:21:40;;;;;;;20.13;14.60;;;;;;;;;;5048990;28;20016;-62
2021/08/10 06:24:06;;;;;;;23.88;15.68;;;;;;;;;;5050616;28;20051;-61
2021/08/10 06:26:32;;;;;;;21.60;14.93;;;;;;;;;;5049559;28;20017;-61
2021/08/10 06:28:58;;;;;;;19.83;14.70;;;;;;;;;;5050664;28;20021;-60
2021/08/10 06:31:24;;;;;;;22.40;14.90;;;;;;;;;;5050816;28;20025;-61
2021/08/10 06:33:50;;;;;;;19.73;14.65;;;;;;;;;;5050488;28;20021;-60
2021/08/10 06:36:16;;;;;;;20.10;15.20;;;;;;;;;;5049047;28;20029;-59
2021/08/10 06:38:42;;;;;;;24.05;16.40;;;;;;;;;;5050843;28;20033;-59
2021/08/10 06:41:08;;;;;;;20.58;14.52;;;;;;;;;;5050200;28;20033;-61
2021/08/10 06:43:34;;;;;;;21.42;14.65;;;;;;;;;;5049034;28;20496;-60
2021/08/10 06:46:00;;;;;;;19.27;14.13;;;;;;;;;;5048175;28;20021;-62
2021/08/10 06:48:26;;;;;;;21.23;15.23;;;;;;;;;;5050500;28;20096;-61
2021/08/10 06:50:52;;;;;;;21.63;14.63;;;;;;;;;;5049930;28;20507;-62
2021/08/10 06:53:19;;;;;;;20.08;14.85;;;;;;;;;;5046047;28;20076;-61
2021/08/10 06:55:45;;;;;;;21.25;15.05;;;;;;;;;;5030771;28;20021;-61
2021/08/10 06:58:11;;;;;;;23.92;15.20;;;;;;;;;;5034049;28;20112;-62
2021/08/10 07:00:39;;;;;;;19.73;14.85;;;;;;;;;;5034120;28;20120;-62
2021/08/10 07:03:05;;;;;;;20.60;14.73;;;;;;;;;;5034341;28;20538;-62
2021/08/10 07:05:31;;;;;;;20.10;14.70;;;;;;;;;;5033592;28;20022;-61
2021/08/10 07:07:57;;;;;;;20.33;15.07;;;;;;;;;;5034434;28;20116;-62
2021/08/10 07:10:23;;;;;;;19.95;14.60;;;;;;;;;;5034056;28;20047;-61
2021/08/10 07:12:49;;;;;;;21.35;13.73;;;;;;;;;;5032957;28;20029;-61
2021/08/10 07:15:15;;;;;;;20.27;14.13;;;;;;;;;;5033416;28;20056;-60
2021/08/10 07:17:41;;;;;;;20.30;15.02;;;;;;;;;;5032749;28;20032;-61
2021/08/10 07:20:07;;;;;;;19.05;13.98;;;;;;;;;;5034148;28;20022;-63
2021/08/10 07:22:33;;;;;;;20.05;15.18;;;;;;;;;;5053859;28;20033;-62
2021/08/10 07:24:59;;;;;;;19.58;13.63;;;;;;;;;;5053699;28;20076;-62
2021/08/10 07:27:25;;;;;;;21.80;14.23;;;;;;;;;;5052955;28;20111;-70
2021/08/10 07:29:51;;;;;;;25.13;15.63;;;;;;;;;;5053558;28;20477;-66
2021/08/10 07:32:17;;;;;;;20.45;14.00;;;;;;;;;;5053581;28;20029;-64
2021/08/10 07:34:43;;;;;;;21.52;15.85;;;;;;;;;;5053630;28;20556;-65
2021/08/10 07:37:09;;;;;;;21.85;14.52;;;;;;;;;;5051399;28;20021;-65
2021/08/10 07:39:35;;;;;;;18.55;14.07;;;;;;;;;;5053404;28;20096;-64
2021/08/10 07:42:01;;;;;;;18.63;13.65;;;;;;;;;;5053492;28;20441;-62
2021/08/10 07:44:27;;;;;;;20.58;14.05;;;;;;;;;;5053118;28;20036;-63
2021/08/10 07:46:53;;;;;;;18.48;14.40;;;;;;;;;;5052509;28;20033;-62
2021/08/10 07:49:19;;;;;;;19.33;14.00;;;;;;;;;;5051543;28;20090;-64
2021/08/10 07:51:45;;;;;;;19.15;14.60;;;;;;;;;;5051560;28;20025;-65
2021/08/10 07:54:11;;;;;;;20.23;14.27;;;;;;;;;;5053096;28;20035;-65
2021/08/10 07:56:37;;;;;;;19.95;14.23;;;;;;;;;;5052658;28;20039;-66
2021/08/10 07:59:03;;;;;;;18.95;14.13;;;;;;;;;;5053091;28;20037;-65
2021/08/10 08:01:29;;;;;;;19.83;14.82;;;;;;;;;;5051611;28;20037;-65
2021/08/10 08:03:55;;;;;;;19.17;14.38;;;;;;;;;;5051430;28;20044;-65
2021/08/10 08:06:21;;;;;;;21.20;14.57;;;;;;;;;;5050587;28;20083;-65
2021/08/10 08:08:47;;;;;;;20.83;14.63;;;;;;;;;;5052799;28;20388;-66
2021/08/10 08:11:13;;;;;;;19.90;14.75;;;;;;;;;;5052614;28;20029;-64
2021/08/10 08:13:39;;;;;;;21.50;15.07;;;;;;;;;;5051481;28;20125;-65
2021/08/10 08:16:05;;;;;;;19.70;15.43;;;;;;;;;;5052289;28;20502;-65
2021/08/10 08:18:31;;;;;;;22.52;14.98;;;;;;;;;;5052507;28;20017;-66
2021/08/10 08:20:57;;;;;;;19.80;15.00;;;;;;;;;;5052645;28;20040;-65
2021/08/10 08:23:25;;;;;;;19.45;15.18;;;;;;;;;;5051452;28;20468;-65
2021/08/10 08:25:52;;;;;;;21.95;15.38;;;;;;;;;;5052012;28;20064;-64
2021/08/10 08:28:18;;;;;;;19.30;15.15;;;;;;;;;;5052273;28;20055;-65
2021/08/10 08:30:44;;;;;;;19.83;15.23;;;;;;;;;;5052422;28;20146;-65
2021/08/10 08:33:11;;;;;;;19.70;15.32;;;;;;;;;;5052501;28;20056;-65
2021/08/10 08:35:38;;;;;;;20.20;15.02;;;;;;;;;;5051450;28;20141;-65
2021/08/10 08:38:04;;;;;;;19.17;15.77;;;;;;;;;;5052069;28;20025;-66
2021/08/10 08:40:30;;;;;;;19.25;15.10;;;;;;;;;;5052725;28;20021;-65
2021/08/10 08:42:57;;;;;;;20.73;16.02;;;;;;;;;;5052320;28;20063;-64
2021/08/10 08:45:23;;;;;;;20.75;15.95;;;;;;;;;;5051488;28;20459;-64
2021/08/10 08:47:53;;;;;;;20.85;16.30;;;;;;;;;;5052160;28;20154;-66
2021/08/10 08:50:20;;;;;;;20.40;16.35;;;;;;;;;;5052051;28;20025;-65
2021/08/10 08:52:49;;;;;;;19.83;15.35;;;;;;;;;;5052003;28;20480;-65
2021/08/10 08:55:16;;;;;;;18.67;15.80;;;;;;;;;;5051590;28;20031;-66
2021/08/10 08:57:42;;;;;;;19.48;15.57;;;;;;;;;;5051884;28;20043;-65
2021/08/10 09:00:08;;;;;;;19.98;16.17;;;;;;;;;;5050597;28;20025;-66
2021/08/10 09:02:34;;;;;;;18.88;16.00;;;;;;;;;;5051890;28;20099;-65
2021/08/10 09:05:00;;;;;;;20.58;16.38;;;;;;;;;;5050674;28;20094;-63
2021/08/10 09:07:29;;;;;;;19.17;16.55;;;;;;;;;;5049634;28;20071;-66
2021/08/10 09:10:09;;;;;;;19.80;16.73;;;;;;;;;;5051367;28;20056;-64
2021/08/10 09:12:42;;;;;;;21.55;16.63;;;;;;;;;;5051409;28;20107;-66
2021/08/10 09:15:08;;;;;;;19.63;17.08;;;;;;;;;;5050744;28;20658;-63
2021/08/10 09:17:34;;;;;;;21.48;17.45;;;;;;;;;;5051073;28;20075;-66
2021/08/10 09:20:03;;;;;;;20.33;17.10;;;;;;;;;;5051627;28;20032;-64
2021/08/10 09:22:33;;;;;;;19.13;16.55;;;;;;;;;;5052435;28;20104;-65
2021/08/10 09:25:01;;;;;;;20.35;17.00;;;;;;;;;;5050692;28;20032;-65
2021/08/10 09:27:29;;;;;;;20.23;17.33;;;;;;;;;;5050829;28;20025;-64
2021/08/10 09:29:55;;;;;;;19.58;17.40;;;;;;;;;;5050036;28;20456;-65
2021/08/10 09:32:21;;;;;;;22.45;17.70;;;;;;;;;;5051113;28;20054;-63
2021/08/10 09:35:05;;;;;;;20.48;17.42;;;;;;;;;;5051195;28;20028;-63
2021/08/10 09:37:31;;;;;;;19.95;17.10;;;;;;;;;;5049827;28;20021;-64
2021/08/10 09:39:57;;;;;;;20.67;17.00;;;;;;;;;;5049943;28;20024;-66
2021/08/10 09:42:25;;;;;;;19.77;17.08;;;;;;;;;;5049702;28;20021;-64
2021/08/10 09:44:57;;;;;;;19.80;17.15;;;;;;;;;;5050948;28;20017;-65
2021/08/10 09:47:39;;;;;;;19.90;17.55;;;;;;;;;;5050339;28;20481;-64
2021/08/10 09:50:26;;;;;;;22.23;17.52;;;;;;;;;;5049825;28;20035;-62
2021/08/10 09:52:53;;;;;;;20.17;17.33;;;;;;;;;;5050849;28;20025;-65
2021/08/10 09:55:19;;;;;;;19.90;17.80;;;;;;;;;;5050000;28;20052;-65
2021/08/10 09:58:01;;;;;;;20.75;18.33;;;;;;;;;;5050535;28;20353;-66
2021/08/10 10:00:41;;;;;;;22.55;17.30;;;;;;;;;;5049414;28;20108;-65
2021/08/10 10:03:22;;;;;;;19.55;16.88;;;;;;;;;;5050557;28;20025;-65
2021/08/10 10:05:49;;;;;;;22.52;17.25;;;;;;;;;;5050120;28;20100;-64
2021/08/10 10:08:15;;;;;;;20.58;17.30;;;;;;;;;;5050460;28;20590;-65
2021/08/10 10:10:42;;;;;;;19.33;16.45;;;;;;;;;;5050669;28;20172;-65
2021/08/10 10:13:10;;;;;;;19.88;16.73;;;;;;;;;;5050479;28;20040;-66
2021/08/10 10:15:37;;;;;;;19.35;17.15;;;;;;;;;;5048149;28;20420;-65
2021/08/10 10:18:03;;;;;;;19.85;16.90;;;;;;;;;;5050119;28;20024;-63
2021/08/10 10:20:29;;;;;;;19.92;17.48;;;;;;;;;;5048666;28;20021;-64
2021/08/10 10:22:55;;;;;;;20.73;17.38;;;;;;;;;;5048835;28;20230;-64
2021/08/10 10:25:24;;;;;;;21.08;18.48;;;;;;;;;;5048149;28;20557;-65
2021/08/10 10:27:51;;;;;;;19.38;17.25;;;;;;;;;;5050239;28;20429;-64
2021/08/10 10:30:17;;;;;;;19.85;16.90;;;;;;;;;;5050059;28;20021;-64
2021/08/10 10:32:43;;;;;;;19.75;17.40;;;;;;;;;;5050153;28;20073;-64
2021/08/10 10:35:10;;;;;;;19.75;17.48;;;;;;;;;;5049498;28;20036;-63
2021/08/10 10:37:37;;;;;;;19.92;17.65;;;;;;;;;;5048580;28;20124;-63
2021/08/10 10:40:04;;;;;;;21.35;19.02;;;;;;;;;;5050000;28;20044;-65
2021/08/10 10:42:30;;;;;;;21.27;18.37;;;;;;;;;;5048434;28;20048;-65
2021/08/10 10:44:57;;;;;;;20.20;18.00;;;;;;;;;;5050010;28;20282;-62
2021/08/10 10:47:23;;;;;;;21.33;19.05;;;;;;;;;;5049319;28;20029;-63
2021/08/10 10:50:09;;;;;;;26.60;18.80;;;;;;;;;;5049964;28;20017;-65
2021/08/10 10:52:36;;;;;;;20.75;18.50;;;;;;;;;;5036105;28;20449;-67
2021/08/10 10:55:04;;;;;;;20.95;18.65;;;;;;;;;;5049650;28;20058;-65
2021/08/10 10:57:32;;;;;;;;;;;;;;;;;;5049811;28;20203;-64
2021/08/10 11:00:05;;;;;;;20.05;17.77;;;;;;;;;;5052536;28;19939;-64
2021/08/10 11:02:32;;;;;;;21.35;18.17;;;;;;;;;;5049819;28;20479;-63
2021/08/10 11:05:07;;;;;;;21.50;18.02;;;;;;;;;;5048271;28;20164;-65
2021/08/10 11:07:44;;;;;;;20.92;18.25;;;;;;;;;;5049572;28;20526;-65
2021/08/10 11:10:29;;;;;;;20.35;18.15;;;;;;;;;;5048563;28;20036;-66
2021/08/10 11:12:55;;;;;;;21.60;17.67;;;;;;;;;;5049584;28;20057;-64
2021/08/10 11:15:22;;;;;;;21.92;18.88;;;;;;;;;;5048630;28;20068;-63
2021/08/10 11:18:06;;;;;;;20.42;18.25;;;;;;;;;;5048212;28;20079;-65
2021/08/10 11:20:32;;;;;;;21.17;18.80;;;;;;;;;;5046695;28;20039;-65
2021/08/10 11:23:19;;;;;;;19.85;17.75;;;;;;;;;;5049720;28;20021;-64
2021/08/10 11:25:45;;;;;;;21.65;18.13;;;;;;;;;;5048934;28;20104;-67
2021/08/10 11:28:27;;;;;;;21.88;18.40;;;;;;;;;;5049716;28;20024;-66
2021/08/10 11:30:54;;;;;;;20.48;18.33;;;;;;;;;;5049998;28;20025;-65
2021/08/10 11:33:36;;;;;;;21.45;18.27;;;;;;;;;;5049728;28;20083;-66
2021/08/10 11:36:14;;;;;;;20.20;18.00;;;;;;;;;;5049354;28;20029;-66
2021/08/10 11:38:52;;;;;;;20.42;18.27;;;;;;;;;;5048115;28;20572;-66
2021/08/10 11:41:29;;;;;;;22.60;18.50;;;;;;;;;;5049851;28;20086;-65
2021/08/10 11:43:57;;;;;;;20.95;18.67;;;;;;;;;;5053769;28;20356;-64
2021/08/10 11:46:27;;;;;;;20.15;18.02;;;;;;;;;;5052819;28;20333;-66
2021/08/10 11:48:57;;;;;;;21.15;18.15;;;;;;;;;;5051549;28;20139;-65
2021/08/10 11:51:28;;;;;;;21.83;18.88;;;;;;;;;;5053143;28;20068;-65
2021/08/10 11:54:06;;;;;;;21.95;17.33;;;;;;;;;;5053365;28;20119;-65
2021/08/10 11:56:34;;;;;;;19.85;17.75;;;;;;;;;;5052391;28;20112;-67
2021/08/10 11:59:01;;;;;;;19.50;17.35;;;;;;;;;;5079961;22;20411;-65
2021/08/10 12:01:28;;;;;;;20.92;17.85;;;;;;;;;;5072759;28;20036;-62
2021/08/10 12:03:55;;;;;;;20.13;17.93;;;;;;;;;;5074183;28;20020;-63
2021/08/10 12:06:27;;;;;;;24.38;18.75;;;;;;;;;;5073368;28;20267;-62
2021/08/10 12:08:55;;;;;;;19.73;17.63;;;;;;;;;;5072569;28;20055;-63
2021/08/10 12:11:24;;;;;;;20.30;18.10;;;;;;;;;;5073630;28;20024;-63
2021/08/10 12:13:50;;;;;;;20.70;18.50;;;;;;;;;;5072619;28;20021;-61
2021/08/10 12:16:17;;;;;;;19.75;17.75;;;;;;;;;;5071793;28;20029;-63
2021/08/10 12:18:49;;;;;;;21.80;18.50;;;;;;;;;;5073352;28;20027;-64
2021/08/10 12:21:16;;;;;;;21.02;18.83;;;;;;;;;;5073730;28;20105;-62
2021/08/10 12:23:50;;;;;;;21.30;19.10;;;;;;;;;;5071998;28;20567;-61
2021/08/10 12:26:20;;;;;;;21.58;19.27;;;;;;;;;;5072302;28;20092;-62
2021/08/10 12:29:00;;;;;;;21.17;18.98;;;;;;;;;;5072075;28;20035;-64
2021/08/10 12:31:26;;;;;;;20.50;18.40;;;;;;;;;;5073399;28;20024;-62
2021/08/10 12:33:54;;;;;;;20.52;18.42;;;;;;;;;;5073530;28;20093;-62
2021/08/10 12:36:21;;;;;;;21.33;19.10;;;;;;;;;;5072874;28;20024;-60
2021/08/10 12:38:48;;;;;;;20.92;18.83;;;;;;;;;;5071752;28;20357;-62
2021/08/10 12:41:14;;;;;;;20.88;18.40;;;;;;;;;;5071935;28;20021;-62
2021/08/10 12:43:40;;;;;;;20.35;18.25;;;;;;;;;;5071692;28;20390;-64
2021/08/10 12:46:26;;;;;;;20.65;17.90;;;;;;;;;;5071314;28;20392;-63
2021/08/10 12:49:03;;;;;;;23.77;19.10;;;;;;;;;;5073202;28;20055;-62
2021/08/10 12:51:48;;;;;;;19.52;17.52;;;;;;;;;;5072817;28;20577;-62
2021/08/10 12:54:14;;;;;;;20.05;18.00;;;;;;;;;;5071725;28;20453;-63
2021/08/10 12:56:40;;;;;;;19.60;17.52;;;;;;;;;;5072209;28;20106;-61
2021/08/10 12:59:06;;;;;;;19.60;17.50;;;;;;;;;;5071497;28;20029;-61
2021/08/10 13:01:42;;;;;;;20.15;18.05;;;;;;;;;;5071535;28;20441;-63
2021/08/10 13:04:09;;;;;;;20.58;17.85;;;;;;;;;;5072771;28;20094;-63
2021/08/10 13:06:35;;;;;;;19.95;17.40;;;;;;;;;;5072066;28;20024;-63
2021/08/10 13:09:02;;;;;;;20.48;18.27;;;;;;;;;;5071161;28;20031;-63
2021/08/10 13:11:28;;;;;;;19.95;17.88;;;;;;;;;;5072619;28;20025;-63
2021/08/10 13:14:07;;;;;;;20.95;17.80;;;;;;;;;;5072516;28;20032;-63
2021/08/10 13:16:35;;;;;;;19.90;17.80;;;;;;;;;;5071478;28;20020;-63
2021/08/10 13:19:11;;;;;;;20.27;17.50;;;;;;;;;;5072320;28;20445;-64
2021/08/10 13:21:44;;;;;;;19.48;17.48;;;;;;;;;;5070843;28;20511;-64
2021/08/10 13:24:10;;;;;;;20.13;17.58;;;;;;;;;;5072641;28;20021;-63
2021/08/10 13:26:46;;;;;;;19.98;17.50;;;;;;;;;;5070248;28;20115;-59
2021/08/10 13:29:12;;;;;;;20.38;16.77;;;;;;;;;;5071869;28;20028;-63
2021/08/10 13:31:46;;;;;;;19.30;16.73;;;;;;;;;;5070803;28;20036;-63
2021/08/10 13:34:12;;;;;;;18.52;16.13;;;;;;;;;;5070646;28;20028;-55
2021/08/10 13:36:38;;;;;;;21.45;18.35;;;;;;;;;;5071673;28;20024;-61
2021/08/10 13:39:05;;;;;;;19.88;17.52;;;;;;;;;;5072320;28;20164;-63
2021/08/10 13:41:33;;;;;;;19.48;17.48;;;;;;;;;;5071963;28;20021;-62
2021/08/10 13:43:59;;;;;;;20.63;18.52;;;;;;;;;;5070563;28;20025;-64
2021/08/10 13:46:29;;;;;;;20.13;18.02;;;;;;;;;;5069881;28;20430;-62
2021/08/10 13:48:55;;;;;;;20.20;17.83;;;;;;;;;;5071581;28;20370;-59
2021/08/10 13:51:22;;;;;;;19.73;17.63;;;;;;;;;;5071661;28;20017;-61
2021/08/10 13:53:48;;;;;;;21.73;19.25;;;;;;;;;;5071966;28;20479;-62
2021/08/10 13:56:14;;;;;;;21.33;19.08;;;;;;;;;;5070493;28;20105;-63
2021/08/10 13:58:40;;;;;;;20.55;18.38;;;;;;;;;;5069638;28;20082;-71
2021/08/10 14:01:11;;;;;;;19.38;17.38;;;;;;;;;;5069936;28;20024;-62
2021/08/10 14:03:37;;;;;;;20.17;18.10;;;;;;;;;;5070444;28;20484;-61
2021/08/10 14:06:05;;;;;;;20.52;17.65;;;;;;;;;;5070504;28;20391;-65
2021/08/10 14:08:31;;;;;;;19.70;17.70;;;;;;;;;;5071680;28;20105;-65
2021/08/10 14:10:57;;;;;;;19.55;17.52;;;;;;;;;;5071265;28;20105;-64
2021/08/10 14:13:23;;;;;;;19.67;17.58;;;;;;;;;;5070070;28;20469;-64
2021/08/10 14:15:49;;;;;;;19.05;17.02;;;;;;;;;;5069039;28;20043;-65
2021/08/10 14:18:15;;;;;;;19.55;17.45;;;;;;;;;;5069925;28;20027;-63
2021/08/10 14:20:41;;;;;;;19.75;17.65;;;;;;;;;;5070098;28;20449;-62
2021/08/10 14:23:07;;;;;;;19.98;17.33;;;;;;;;;;5069922;28;20059;-62